createdAt,value
2022-11-03T00:01:17.089Z,11.16
2022-11-03T00:06:18.414Z,11.00
2022-11-03T00:11:19.682Z,10.82
2022-11-03T00:16:21.110Z,11.03
2022-11-03T00:21:22.491Z,11.18
2022-11-03T00:26:26.262Z,11.15
2022-11-03T00:31:29.874Z,11.07
2022-11-03T00:36:33.551Z,11.03
2022-11-03T00:41:34.924Z,10.89
2022-11-03T00:46:36.353Z,10.83
2022-11-03T00:51:37.656Z,10.88
2022-11-03T00:56:41.471Z,10.84
2022-11-03T01:01:47.137Z,10.70
2022-11-03T01:06:50.837Z,10.79
2022-11-03T01:12:10.194Z,10.69
2022-11-03T01:17:25.428Z,10.56
2022-11-03T01:22:26.727Z,10.51
2022-11-03T01:27:28.032Z,10.41
2022-11-03T01:32:29.359Z,10.44
2022-11-03T01:37:30.737Z,10.64
2022-11-03T01:42:32.085Z,10.58
2022-11-03T01:47:35.714Z,10.74
2022-11-03T01:52:55.018Z,11.02
2022-11-03T01:58:07.244Z,11.03
2022-11-03T02:03:09.429Z,11.10
2022-11-03T02:08:22.288Z,11.05
2022-11-03T02:13:27.292Z,10.78
2022-11-03T02:18:33.358Z,10.76
2022-11-03T02:23:43.408Z,10.87
2022-11-03T02:28:44.908Z,10.94
2022-11-03T02:33:58.524Z,10.94
2022-11-03T02:39:09.613Z,10.86
2022-11-03T02:44:17.155Z,10.93
2022-11-03T02:49:18.527Z,11.04
2022-11-03T02:54:25.912Z,11.08
2022-11-03T02:59:32.184Z,10.82
2022-11-03T03:04:40.617Z,10.78
2022-11-03T03:09:50.651Z,11.00
2022-11-03T03:14:54.530Z,11.08
2022-11-03T03:20:07.586Z,10.99
2022-11-03T03:25:16.333Z,10.52
2022-11-03T03:30:18.676Z,10.24
2022-11-03T03:35:25.057Z,10.27
2022-11-03T03:40:31.461Z,10.27
2022-11-03T03:45:35.084Z,10.12
2022-11-03T03:50:38.380Z,9.97
2022-11-03T03:55:45.161Z,9.99
2022-11-03T04:00:46.597Z,10.32
2022-11-03T04:05:48.389Z,10.38
2022-11-03T04:11:08.374Z,10.20
2022-11-03T04:16:28.193Z,10.09
2022-11-03T04:21:47.980Z,9.85
2022-11-03T04:26:49.357Z,9.96
2022-11-03T04:31:50.634Z,10.19
2022-11-03T04:36:52.009Z,10.00
2022-11-03T04:41:53.334Z,9.99
2022-11-03T04:46:54.621Z,9.85
2022-11-03T04:51:55.924Z,9.73
2022-11-03T04:56:57.196Z,9.67
2022-11-03T05:01:59.225Z,9.93
2022-11-03T05:07:00.650Z,9.98
2022-11-03T05:12:01.977Z,10.11
2022-11-03T05:17:15.450Z,9.94
2022-11-03T05:22:20.853Z,9.68
2022-11-03T05:27:22.577Z,9.60
2022-11-03T05:32:30.284Z,9.63
2022-11-03T05:37:33.341Z,9.67
2022-11-03T05:42:37.719Z,9.61
2022-11-03T05:47:40.317Z,9.65
2022-11-03T05:52:43.980Z,9.61
2022-11-03T05:57:45.489Z,9.50
2022-11-03T06:02:49.457Z,9.45
2022-11-03T06:07:54.164Z,9.40
2022-11-03T06:12:59.742Z,9.41
2022-11-03T06:18:12.786Z,9.51
2022-11-03T06:23:17.102Z,9.44
2022-11-03T06:28:22.626Z,9.43
2022-11-03T06:33:28.135Z,9.41
2022-11-03T06:38:31.606Z,9.45
2022-11-03T06:43:42.436Z,9.46
2022-11-03T06:48:45.184Z,9.62
2022-11-03T06:53:47.346Z,9.72
2022-11-03T06:58:52.017Z,9.82
2022-11-03T07:03:57.682Z,9.74
2022-11-03T07:09:01.304Z,9.81
2022-11-03T07:14:12.146Z,9.86
2022-11-03T07:19:25.001Z,10.18
2022-11-03T07:24:33.555Z,10.15
2022-11-03T07:29:34.846Z,10.24
2022-11-03T07:34:36.666Z,10.29
2022-11-03T07:39:38.707Z,10.35
2022-11-03T07:44:40.636Z,10.41
2022-11-03T07:49:42.624Z,10.50
2022-11-03T07:54:44.269Z,10.59
2022-11-03T07:59:48.845Z,10.85
2022-11-03T08:04:50.172Z,10.96
2022-11-03T08:09:52.391Z,11.03
2022-11-03T08:14:54.383Z,11.02
2022-11-03T08:19:55.771Z,11.11
2022-11-03T08:24:58.638Z,11.09
2022-11-03T08:30:00.259Z,11.17
2022-11-03T08:35:01.575Z,11.24
2022-11-03T08:40:07.440Z,11.40
2022-11-03T08:45:10.007Z,11.53
2022-11-03T08:50:11.385Z,11.84
2022-11-03T08:55:12.948Z,12.18
2022-11-03T09:00:16.962Z,12.54
2022-11-03T09:05:18.631Z,12.78
2022-11-03T09:10:22.247Z,13.40
2022-11-03T09:15:26.523Z,13.96
2022-11-03T09:20:27.827Z,14.62
2022-11-03T09:25:29.212Z,14.82
2022-11-03T09:30:30.960Z,14.78
2022-11-03T09:35:32.333Z,14.61
2022-11-03T09:40:35.694Z,15.54
2022-11-03T09:45:38.644Z,16.40
2022-11-03T09:50:40.069Z,16.96
2022-11-03T09:55:41.395Z,17.30
2022-11-03T10:00:43.397Z,16.98
2022-11-03T10:05:45.433Z,16.48
2022-11-03T10:10:46.885Z,16.24
2022-11-03T10:15:48.319Z,16.39
2022-11-03T10:20:49.718Z,18.33
2022-11-03T10:25:51.087Z,20.40
2022-11-03T10:31:10.544Z,21.59
2022-11-03T10:36:15.680Z,21.58
2022-11-03T10:41:26.051Z,19.36
2022-11-03T10:51:52.363Z,19.69
2022-11-03T10:56:53.847Z,20.37
2022-11-03T11:01:55.366Z,18.65
2022-11-03T11:06:56.817Z,17.40
2022-11-03T11:11:58.826Z,16.64
2022-11-03T11:17:01.677Z,16.31
2022-11-03T11:22:13.331Z,16.22
2022-11-03T11:27:31.709Z,16.11
2022-11-03T11:32:42.104Z,15.90
2022-11-03T11:37:44.129Z,16.04
2022-11-03T11:43:10.976Z,16.04
2022-11-03T11:48:19.243Z,15.79
2022-11-03T11:53:25.066Z,15.49
2022-11-03T11:58:33.126Z,15.35
2022-11-03T12:03:41.165Z,15.34
2022-11-03T12:08:43.201Z,15.13
2022-11-03T12:13:51.015Z,14.96
2022-11-03T12:18:52.759Z,15.06
2022-11-03T12:23:54.154Z,14.99
2022-11-03T12:28:55.696Z,15.11
2022-11-03T12:33:56.994Z,15.31
2022-11-03T12:38:58.278Z,15.26
2022-11-03T12:43:59.729Z,15.14
2022-11-03T12:49:01.074Z,15.09
2022-11-03T12:54:02.357Z,15.14
2022-11-03T12:59:03.930Z,15.09
2022-11-03T13:04:06.071Z,15.06
2022-11-03T13:09:07.429Z,15.10
2022-11-03T13:14:08.819Z,15.15
2022-11-03T13:19:10.717Z,15.03
2022-11-03T13:24:12.110Z,14.90
2022-11-03T13:29:13.406Z,15.01
2022-11-03T13:34:14.715Z,15.07
2022-11-03T13:39:16.363Z,15.06
2022-11-03T13:44:17.755Z,14.94
2022-11-03T13:50:07.671Z,14.79
2022-11-03T14:00:08.019Z,14.54
2022-11-03T14:05:11.684Z,14.56
2022-11-03T14:10:13.335Z,14.57
2022-11-03T14:15:14.687Z,14.57
2022-11-03T14:20:16.082Z,14.56
2022-11-03T14:25:20.055Z,14.59
2022-11-03T14:30:21.411Z,14.59
2022-11-03T14:35:23.726Z,14.56
2022-11-03T14:40:43.854Z,14.49
2022-11-03T14:45:45.181Z,14.43
2022-11-03T14:50:46.507Z,14.43
2022-11-03T14:55:47.782Z,14.33
2022-11-03T15:00:49.226Z,14.29
2022-11-03T15:05:54.263Z,14.28
2022-11-03T15:10:56.303Z,14.24
2022-11-03T15:15:57.980Z,14.20
2022-11-03T15:20:59.718Z,14.18
2022-11-03T15:26:02.476Z,14.08
2022-11-03T15:31:04.281Z,14.07
2022-11-03T15:36:07.384Z,14.00
2022-11-03T15:41:19.671Z,14.00
2022-11-03T15:46:21.279Z,13.92
2022-11-03T15:51:22.577Z,13.93
2022-11-03T15:56:23.864Z,13.90
2022-11-03T16:01:25.266Z,13.85
2022-11-03T16:06:46.549Z,13.83
2022-11-03T16:11:48.234Z,13.89
2022-11-03T16:16:49.526Z,13.88
2022-11-03T16:21:51.596Z,13.93
2022-11-03T16:26:52.944Z,13.92
2022-11-03T16:31:54.427Z,13.90
2022-11-03T16:36:56.220Z,13.87
2022-11-03T16:41:57.619Z,13.82
2022-11-03T16:46:58.902Z,13.77
2022-11-03T16:52:00.366Z,13.75
2022-11-03T16:57:01.754Z,13.83
2022-11-03T17:02:03.160Z,13.82
2022-11-03T17:07:04.623Z,13.85
2022-11-03T17:12:06.208Z,13.93
2022-11-03T17:17:07.656Z,13.91
2022-11-03T17:22:09.070Z,13.91
2022-11-03T17:27:14.987Z,13.83
2022-11-03T17:32:24.715Z,13.75
2022-11-03T17:37:26.902Z,13.67
2022-11-03T17:42:28.634Z,13.61
2022-11-03T17:47:31.617Z,13.60
2022-11-03T17:52:33.603Z,13.55
2022-11-03T17:57:35.633Z,13.51
2022-11-03T18:02:39.425Z,13.47
2022-11-03T18:07:42.732Z,13.54
2022-11-03T18:13:05.362Z,13.43
2022-11-03T18:18:13.874Z,13.39
2022-11-03T18:23:21.449Z,13.42
2022-11-03T18:28:22.841Z,13.41
2022-11-03T18:33:27.000Z,13.53
2022-11-03T18:38:28.595Z,13.57
2022-11-03T18:43:30.091Z,13.52
2022-11-03T18:48:31.784Z,13.52
2022-11-03T18:53:34.027Z,13.54
2022-11-03T18:58:35.411Z,13.44
2022-11-03T19:03:36.790Z,13.39
2022-11-03T19:08:38.109Z,13.18
2022-11-03T19:13:44.395Z,13.07
2022-11-03T19:18:46.036Z,13.07
2022-11-03T19:23:49.674Z,12.98
2022-11-03T19:29:00.022Z,12.87
2022-11-03T19:34:02.590Z,12.96
2022-11-03T19:39:14.435Z,13.05
2022-11-03T19:44:15.780Z,13.15
2022-11-03T19:49:17.114Z,13.23
2022-11-03T19:54:21.105Z,13.25
2022-11-03T19:59:22.466Z,13.29
2022-11-03T20:04:23.845Z,13.19
2022-11-03T20:14:29.433Z,13.06
2022-11-03T20:19:30.720Z,12.95
2022-11-03T20:24:32.514Z,12.87
2022-11-03T20:29:34.996Z,12.78
2022-11-03T20:34:37.033Z,12.75
2022-11-03T20:39:38.448Z,12.71
2022-11-03T20:44:39.927Z,12.67
2022-11-03T20:49:41.342Z,12.62
2022-11-03T20:54:46.114Z,12.63
2022-11-03T20:59:47.580Z,12.60
2022-11-03T21:04:48.960Z,12.59
2022-11-03T21:09:50.300Z,12.53
2022-11-03T21:15:10.051Z,12.53
2022-11-03T21:20:12.093Z,12.54
2022-11-03T21:25:15.974Z,12.53
2022-11-03T21:30:18.109Z,12.46
2022-11-03T21:35:21.480Z,12.55
2022-11-03T21:40:23.066Z,12.60
2022-11-03T21:45:24.893Z,12.62
2022-11-03T21:50:26.318Z,12.56
2022-11-03T21:55:28.852Z,12.58
2022-11-03T22:00:30.701Z,12.60
2022-11-03T22:05:32.235Z,12.60
2022-11-03T22:10:33.560Z,12.59
2022-11-03T22:15:53.724Z,12.48
2022-11-03T22:21:16.349Z,12.64
2022-11-03T22:26:36.345Z,12.55
2022-11-03T22:31:40.439Z,12.55
2022-11-03T22:36:41.768Z,12.53
2022-11-03T22:42:06.079Z,12.48
2022-11-03T22:47:08.557Z,12.37
2022-11-03T22:52:10.589Z,12.37
2022-11-03T22:57:13.076Z,12.29
2022-11-03T23:02:14.423Z,12.26
2022-11-03T23:07:15.813Z,12.14
2022-11-03T23:12:17.095Z,12.20
2022-11-03T23:17:18.354Z,12.09
2022-11-03T23:22:19.622Z,12.10
2022-11-03T23:27:20.906Z,12.08
2022-11-03T23:32:22.333Z,12.08
2022-11-03T23:37:23.672Z,12.05
2022-11-03T23:42:24.982Z,11.96
2022-11-03T23:47:45.243Z,11.97
2022-11-03T23:52:46.687Z,11.95
2022-11-03T23:58:07.055Z,11.89
